createdAt,value
2023-04-30T00:01:42.169Z,2.42
2023-04-30T00:06:44.755Z,2.93
2023-04-30T00:11:48.518Z,3.11
2023-04-30T00:16:51.043Z,3.09
2023-04-30T00:21:55.103Z,2.58
2023-04-30T00:26:58.579Z,2.16
2023-04-30T00:32:01.054Z,2.57
2023-04-30T00:37:03.994Z,2.29
2023-04-30T00:42:06.617Z,2.49
2023-04-30T00:47:08.950Z,2.42
2023-04-30T00:52:11.383Z,2.55
2023-04-30T00:57:16.531Z,2.83
2023-04-30T01:02:19.113Z,2.78
2023-04-30T01:07:22.071Z,2.72
2023-04-30T01:12:33.776Z,2.54
2023-04-30T01:17:41.966Z,2.67
2023-04-30T01:22:55.167Z,2.43
2023-04-30T01:28:10.873Z,2.14
2023-04-30T01:33:14.191Z,2.30
2023-04-30T01:38:24.714Z,1.78
2023-04-30T01:43:34.854Z,2.48
2023-04-30T01:49:01.274Z,2.50
2023-04-30T01:54:11.756Z,2.23
2023-04-30T01:59:15.076Z,2.23
2023-04-30T02:04:17.527Z,2.02
2023-04-30T02:09:19.960Z,1.73
2023-04-30T02:14:22.374Z,1.48
2023-04-30T02:19:48.399Z,1.57
2023-04-30T02:24:50.876Z,2.09
2023-04-30T02:29:54.137Z,1.84
2023-04-30T02:34:57.028Z,1.85
2023-04-30T02:39:59.500Z,1.99
2023-04-30T02:45:02.252Z,1.42
2023-04-30T02:50:07.488Z,2.05
2023-04-30T02:55:10.094Z,1.86
2023-04-30T03:00:13.249Z,2.06
2023-04-30T03:05:16.225Z,1.67
2023-04-30T03:10:19.468Z,1.26
2023-04-30T03:15:22.543Z,1.47
2023-04-30T03:20:24.968Z,0.60
2023-04-30T03:25:27.389Z,1.87
2023-04-30T03:30:29.823Z,2.31
2023-04-30T03:35:32.732Z,1.85
2023-04-30T03:40:35.604Z,2.56
2023-04-30T03:45:38.314Z,1.10
2023-04-30T03:50:40.880Z,3.03
2023-04-30T03:55:43.524Z,2.20
2023-04-30T04:00:48.638Z,2.86
2023-04-30T04:05:51.049Z,3.67
2023-04-30T04:10:53.728Z,3.87
2023-04-30T04:15:56.140Z,4.07
2023-04-30T04:20:58.623Z,3.69
2023-04-30T04:26:01.956Z,3.16
2023-04-30T04:31:04.626Z,4.17
2023-04-30T04:36:07.962Z,4.67
2023-04-30T04:41:10.339Z,4.47
2023-04-30T04:46:14.475Z,5.21
2023-04-30T04:51:16.920Z,5.40
2023-04-30T04:56:19.309Z,5.19
2023-04-30T05:01:22.153Z,4.90
2023-04-30T05:06:24.578Z,5.87
2023-04-30T05:11:29.305Z,6.21
2023-04-30T05:16:32.120Z,4.41
2023-04-30T05:21:34.678Z,6.56
2023-04-30T05:26:37.110Z,6.81
2023-04-30T05:31:39.555Z,6.60
2023-04-30T05:36:43.188Z,5.23
2023-04-30T05:41:49.119Z,6.06
2023-04-30T05:46:51.707Z,6.40
2023-04-30T05:51:54.091Z,5.19
2023-04-30T05:56:56.477Z,7.20
2023-04-30T06:01:58.934Z,8.39
2023-04-30T06:07:01.564Z,7.23
2023-04-30T06:12:04.437Z,7.94
2023-04-30T06:17:06.884Z,5.70
2023-04-30T06:22:09.489Z,9.24
2023-04-30T06:27:11.810Z,8.88
2023-04-30T06:32:14.279Z,7.04
2023-04-30T06:37:16.685Z,8.32
2023-04-30T06:42:19.032Z,9.93
2023-04-30T06:47:21.330Z,9.87
2023-04-30T06:52:23.683Z,10.03
2023-04-30T06:57:26.154Z,10.32
2023-04-30T07:02:28.612Z,9.78
2023-04-30T07:07:31.660Z,10.39
2023-04-30T07:12:34.385Z,9.12
2023-04-30T07:17:37.548Z,10.23
2023-04-30T07:22:39.973Z,10.37
2023-04-30T07:27:42.635Z,9.40
2023-04-30T07:32:45.501Z,10.77
2023-04-30T07:37:48.310Z,10.75
2023-04-30T07:42:50.904Z,10.92
2023-04-30T07:47:53.580Z,10.95
2023-04-30T07:52:56.149Z,10.11
2023-04-30T07:57:59.263Z,9.54
2023-04-30T08:03:01.916Z,10.08
2023-04-30T08:08:04.705Z,10.88
2023-04-30T08:13:07.217Z,8.36
2023-04-30T08:18:10.163Z,10.01
2023-04-30T08:23:12.626Z,9.89
2023-04-30T08:28:15.050Z,10.05
2023-04-30T08:33:18.149Z,10.77
2023-04-30T08:38:20.700Z,10.40
2023-04-30T08:43:23.932Z,10.87
2023-04-30T08:48:27.099Z,9.88
2023-04-30T08:53:36.096Z,9.81
2023-04-30T08:58:38.560Z,10.29
2023-04-30T09:03:41.107Z,10.25
2023-04-30T09:08:48.521Z,10.12
2023-04-30T09:13:55.108Z,10.18
2023-04-30T09:18:57.833Z,9.16
2023-04-30T09:24:02.483Z,7.76
2023-04-30T09:29:08.404Z,8.58
2023-04-30T09:34:11.320Z,10.49
2023-04-30T09:39:17.907Z,8.95
2023-04-30T09:44:30.172Z,11.09
2023-04-30T09:49:32.823Z,10.59
2023-04-30T09:54:36.084Z,10.11
2023-04-30T09:59:40.092Z,10.61
2023-04-30T10:04:44.068Z,10.51
2023-04-30T10:10:25.344Z,11.22
2023-04-30T10:15:36.009Z,11.14
2023-04-30T10:20:39.525Z,10.54
2023-04-30T10:25:41.897Z,10.13
2023-04-30T10:30:44.609Z,10.37
2023-04-30T10:35:55.962Z,10.87
2023-04-30T10:41:02.777Z,10.93
2023-04-30T10:46:05.295Z,11.11
2023-04-30T10:51:10.263Z,10.60
2023-04-30T10:56:13.628Z,9.23
2023-04-30T11:01:17.886Z,9.13
2023-04-30T11:06:22.043Z,11.00
2023-04-30T11:11:24.502Z,10.99
2023-04-30T11:16:49.705Z,11.31
2023-04-30T11:22:04.259Z,11.29
2023-04-30T11:27:06.775Z,10.63
2023-04-30T11:32:09.741Z,10.86
2023-04-30T11:37:20.935Z,11.39
2023-04-30T11:42:23.399Z,10.23
2023-04-30T11:47:25.871Z,11.11
2023-04-30T11:52:28.830Z,10.80
2023-04-30T11:57:36.085Z,11.32
2023-04-30T12:02:39.808Z,11.29
2023-04-30T12:07:47.521Z,11.09
2023-04-30T12:12:53.008Z,11.49
2023-04-30T12:17:57.938Z,11.52
2023-04-30T12:23:01.445Z,11.10
2023-04-30T12:28:03.880Z,10.95
2023-04-30T12:33:06.542Z,11.52
2023-04-30T12:38:09.995Z,11.54
2023-04-30T12:43:16.182Z,11.53
2023-04-30T12:48:20.275Z,11.51
2023-04-30T12:53:24.108Z,11.50
2023-04-30T12:58:31.540Z,11.48
2023-04-30T13:03:33.999Z,11.43
2023-04-30T13:08:45.610Z,10.69
2023-04-30T13:13:52.553Z,11.37
2023-04-30T13:18:56.495Z,10.95
2023-04-30T13:29:02.063Z,11.29
2023-04-30T13:34:04.509Z,11.29
2023-04-30T13:39:07.185Z,10.46
2023-04-30T13:44:09.813Z,10.62
2023-04-30T13:49:12.259Z,10.85
2023-04-30T13:54:14.685Z,11.16
2023-04-30T13:59:17.144Z,10.09
2023-04-30T14:04:20.136Z,10.25
2023-04-30T14:09:23.106Z,11.12
2023-04-30T14:14:26.713Z,11.10
2023-04-30T14:19:29.299Z,10.71
2023-04-30T14:24:32.034Z,10.64
2023-04-30T14:29:34.465Z,10.55
2023-04-30T14:34:37.915Z,11.00
2023-04-30T14:39:41.885Z,10.10
2023-04-30T14:44:44.576Z,10.61
2023-04-30T14:49:47.824Z,10.50
2023-04-30T14:54:50.202Z,10.20
2023-04-30T14:59:55.528Z,10.59
2023-04-30T15:04:58.263Z,10.24
2023-04-30T15:10:01.146Z,10.77
2023-04-30T15:15:05.111Z,10.43
2023-04-30T15:20:09.107Z,10.61
2023-04-30T15:25:11.626Z,10.55
2023-04-30T15:30:14.082Z,10.36
2023-04-30T15:35:16.499Z,9.90
2023-04-30T15:40:18.824Z,9.55
2023-04-30T15:45:22.462Z,10.21
2023-04-30T15:50:25.042Z,10.31
2023-04-30T15:55:27.490Z,10.42
2023-04-30T16:00:30.603Z,10.26
2023-04-30T16:05:35.321Z,10.38
2023-04-30T16:10:38.260Z,10.06
2023-04-30T16:15:40.601Z,9.67
2023-04-30T16:20:45.096Z,10.03
2023-04-30T16:25:47.528Z,10.15
2023-04-30T16:30:53.287Z,9.73
2023-04-30T16:35:55.696Z,9.03
2023-04-30T16:40:58.489Z,9.27
2023-04-30T16:46:01.038Z,9.38
2023-04-30T16:51:04.038Z,9.39
2023-04-30T16:56:06.701Z,9.13
2023-04-30T17:01:09.720Z,9.12
2023-04-30T17:06:14.583Z,8.88
2023-04-30T17:11:20.858Z,9.02
2023-04-30T17:16:23.770Z,8.86
2023-04-30T17:21:30.132Z,9.12
2023-04-30T17:26:32.586Z,8.53
2023-04-30T17:31:35.091Z,8.71
2023-04-30T17:36:37.809Z,9.01
2023-04-30T17:41:40.210Z,8.58
2023-04-30T17:46:42.714Z,8.52
2023-04-30T17:51:48.658Z,8.69
2023-04-30T17:56:53.463Z,8.41
2023-04-30T18:01:56.432Z,8.04
2023-04-30T18:06:58.891Z,8.68
2023-04-30T18:12:01.327Z,7.84
2023-04-30T18:17:04.051Z,8.76
2023-04-30T18:22:09.009Z,8.24
2023-04-30T18:27:11.917Z,8.70
2023-04-30T18:32:15.060Z,8.13
2023-04-30T18:37:21.333Z,8.51
2023-04-30T18:42:26.149Z,8.20
2023-04-30T18:47:30.840Z,8.53
2023-04-30T18:52:33.854Z,8.48
2023-04-30T18:57:36.401Z,7.58
2023-04-30T19:02:38.904Z,7.30
2023-04-30T19:07:42.675Z,7.81
2023-04-30T19:12:45.254Z,8.20
2023-04-30T19:17:47.963Z,8.17
2023-04-30T19:22:50.532Z,8.12
2023-04-30T19:27:52.988Z,7.69
2023-04-30T19:32:55.527Z,7.70
2023-04-30T19:37:58.062Z,6.72
2023-04-30T19:43:00.429Z,7.97
2023-04-30T19:48:02.857Z,8.00
2023-04-30T19:53:05.358Z,7.23
2023-04-30T19:58:07.934Z,7.98
2023-04-30T20:03:10.468Z,7.97
2023-04-30T20:08:13.039Z,7.42
2023-04-30T20:13:16.242Z,7.75
2023-04-30T20:18:21.140Z,7.90
2023-04-30T20:23:23.722Z,7.71
2023-04-30T20:28:26.109Z,7.85
2023-04-30T20:33:29.263Z,7.47
2023-04-30T20:38:31.648Z,7.78
2023-04-30T20:43:34.262Z,7.74
2023-04-30T20:48:36.675Z,7.62
2023-04-30T20:53:39.025Z,7.76
2023-04-30T20:58:43.214Z,7.36
2023-04-30T21:03:45.613Z,7.60
2023-04-30T21:08:49.008Z,6.88
2023-04-30T21:13:51.550Z,6.81
2023-04-30T21:18:54.004Z,6.29
2023-04-30T21:23:56.436Z,5.92
2023-04-30T21:28:58.733Z,7.60
2023-04-30T21:34:01.116Z,7.00
2023-04-30T21:39:04.401Z,6.44
2023-04-30T21:44:06.793Z,6.52
2023-04-30T21:49:10.204Z,7.58
2023-04-30T21:54:13.042Z,7.58
2023-04-30T21:59:15.539Z,7.12
2023-04-30T22:04:18.184Z,7.61
2023-04-30T22:09:20.890Z,6.57
2023-04-30T22:14:23.668Z,7.43
2023-04-30T22:19:26.015Z,6.93
2023-04-30T22:24:28.471Z,7.27
2023-04-30T22:29:31.115Z,7.25
2023-04-30T22:34:40.594Z,7.39
2023-04-30T22:39:43.277Z,7.41
2023-04-30T22:44:46.226Z,7.55
2023-04-30T22:49:48.729Z,6.48
2023-04-30T22:54:51.193Z,6.83
2023-04-30T22:59:53.776Z,7.33
2023-04-30T23:04:56.446Z,6.41
2023-04-30T23:09:59.037Z,7.23
2023-04-30T23:15:02.378Z,7.17
2023-04-30T23:20:08.231Z,7.15
2023-04-30T23:25:10.621Z,6.69
2023-04-30T23:30:13.289Z,6.81
2023-04-30T23:35:15.719Z,7.32
2023-04-30T23:40:20.063Z,7.45
2023-04-30T23:45:22.743Z,7.10
2023-04-30T23:50:25.256Z,7.39
2023-04-30T23:55:27.786Z,7.27
